Empire, Georgia
Current Conditions -  °F | °C
As of 10:55 PM on Sunday 23 Nov 2014 (Local Time) from KEZM Reporting Station
Overcast Overcast  
Wind Chill: 66°   Ceiling: 800
Heat Index: 66°   Visibility: 10mi
Dew Point: 66°   Wind: 8mph
Humidity: 100%   Direction: 220°SW
Pressure: 29.84"   Gusts: NA
Location:  32.4223°N, 83.3103°W
Report Text: KEZM 240355Z AUTO 22007KT 10SM OVC008 19/19 A2984 RMK AO2 LTG DSNT E T01910191
Loading
Personal Weather Stations






























Interactive Weather Map New forecast layout! Learn more

10-Day Weather Forecast

Advertisements
Track Severe Weather on mobile